Time;durP1;ratioP1;P1;durP2;ratioP2;P2;SDS_P1;SDS_P2;PMS_P1;PMS_P2;Temp;Humidity;BMP_temperature;BMP_pressure;BME280_temperature;BME280_humidity;BME280_pressure;Samples;Min_cycle;Max_cycle;Signal;HPM_P1;HPM_P2
2023/03/19 00:00:52;;;;;;;21.58;14.98;;;;;;;7.59;48.86;99496.88;4274963;33;32299;-89
2023/03/19 00:03:20;;;;;;;21.35;13.73;;;;;;;7.52;48.96;99500.09;4288162;33;34544;-88
2023/03/19 00:05:52;;;;;;;20.88;14.73;;;;;;;7.50;49.26;99488.84;4275327;33;34243;-87
2023/03/19 00:08:21;;;;;;;21.45;14.10;;;;;;;7.44;49.33;99486.09;4272386;33;33646;-88
2023/03/19 00:10:49;;;;;;;20.67;14.48;;;;;;;7.41;49.33;99480.84;4260761;33;33207;-86
2023/03/19 00:13:17;;;;;;;20.37;14.52;;;;;;;7.56;48.87;99476.13;4261031;33;34543;-86
2023/03/19 00:15:46;;;;;;;20.30;15.60;;;;;;;7.50;48.86;99481.09;4260445;33;34800;-88
2023/03/19 00:18:13;;;;;;;23.27;14.52;;;;;;;7.46;49.06;99485.31;4273521;33;33621;-87
2023/03/19 00:20:42;;;;;;;20.42;14.95;;;;;;;7.40;49.42;99484.25;4273737;33;33463;-87
2023/03/19 00:23:10;;;;;;;20.42;14.95;;;;;;;7.32;49.69;99484.88;4260240;33;34720;-84
2023/03/19 00:25:37;;;;;;;20.27;14.75;;;;;;;7.22;49.92;99477.69;4284392;33;33718;-87
2023/03/19 00:28:05;;;;;;;21.23;14.63;;;;;;;7.34;49.72;99478.88;4278113;33;33415;-85
2023/03/19 00:30:32;;;;;;;21.42;14.85;;;;;;;7.40;49.60;99469.63;4273503;33;34623;-83
2023/03/19 00:33:01;;;;;;;21.80;16.10;;;;;;;7.19;50.06;99472.44;4248526;33;33222;-88
2023/03/19 00:35:28;;;;;;;21.80;16.05;;;;;;;7.31;49.75;99477.97;4270458;33;34226;-88
2023/03/19 00:37:56;;;;;;;20.90;14.95;;;;;;;7.01;50.48;99475.31;4274423;33;34282;-88
2023/03/19 00:40:24;;;;;;;20.83;14.50;;;;;;;6.94;50.60;99470.78;4287802;33;33425;-85
2023/03/19 00:42:51;;;;;;;21.73;15.32;;;;;;;6.99;50.71;99463.19;4273681;33;32309;-88
2023/03/19 00:45:19;;;;;;;20.85;14.23;;;;;;;7.18;50.35;99468.09;4265096;33;34000;-85
2023/03/19 00:47:46;;;;;;;20.62;14.82;;;;;;;7.05;50.36;99463.41;4273728;33;34670;-87
2023/03/19 00:50:14;;;;;;;21.37;14.98;;;;;;;7.01;50.29;99464.12;4260290;33;33582;-88
2023/03/19 00:52:42;;;;;;;20.20;14.05;;;;;;;7.07;50.28;99452.28;4273299;33;33936;-84
2023/03/19 00:55:09;;;;;;;20.83;14.57;;;;;;;6.95;50.30;99453.63;4272143;33;33044;-88
2023/03/19 00:57:37;;;;;;;20.23;14.18;;;;;;;6.98;50.36;99457.19;4273308;33;34532;-88
2023/03/19 01:00:05;;;;;;;20.27;15.25;;;;;;;6.86;50.50;99456.78;4273508;33;33345;-85
2023/03/19 01:02:33;;;;;;;19.73;14.32;;;;;;;7.28;49.32;99454.69;4274136;33;32761;-89
2023/03/19 01:05:01;;;;;;;20.60;14.85;;;;;;;7.40;49.03;99454.16;4273721;33;33270;-85
2023/03/19 01:07:29;;;;;;;20.00;14.43;;;;;;;7.39;49.19;99448.97;4287410;33;33532;-84
2023/03/19 01:09:57;;;;;;;20.52;14.52;;;;;;;7.51;48.77;99457.94;4262274;33;32116;-85
2023/03/19 01:12:25;;;;;;;18.37;13.82;;;;;;;7.24;49.55;99458.00;4273439;33;33355;-84
2023/03/19 01:14:53;;;;;;;18.58;14.48;;;;;;;7.38;49.20;99460.09;4287351;33;33945;-84
2023/03/19 01:17:20;;;;;;;21.77;14.00;;;;;;;7.25;49.46;99461.44;4287444;33;34069;-85
2023/03/19 01:19:48;;;;;;;18.35;13.85;;;;;;;7.12;49.37;99456.72;4282322;33;33678;-86
2023/03/19 01:22:16;;;;;;;21.23;14.50;;;;;;;7.26;49.21;99470.91;4259582;33;33716;-88
2023/03/19 01:24:44;;;;;;;21.10;14.68;;;;;;;7.20;49.44;99455.28;4274536;33;33554;-87
2023/03/19 01:27:12;;;;;;;20.70;14.63;;;;;;;7.01;49.88;99457.28;4273880;33;34500;-89
2023/03/19 01:29:40;;;;;;;18.87;13.68;;;;;;;7.28;49.35;99457.25;4270291;33;33546;-84
2023/03/19 01:32:08;;;;;;;20.70;14.05;;;;;;;7.22;49.31;99454.47;4273113;33;33591;-88
2023/03/19 01:34:36;;;;;;;18.30;14.25;;;;;;;7.21;49.17;99455.31;4271464;33;34529;-87
2023/03/19 01:37:06;;;;;;;18.77;13.68;;;;;;;7.07;49.61;99457.44;4272835;33;35187;-86
2023/03/19 01:39:35;;;;;;;18.48;13.43;;;;;;;6.96;49.89;99460.53;4272343;33;33579;-89
2023/03/19 01:42:03;;;;;;;19.25;13.90;;;;;;;7.07;49.53;99460.03;4274263;33;32295;-87
2023/03/19 01:44:34;;;;;;;20.40;14.35;;;;;;;6.99;49.68;99450.31;4274108;33;35125;-89
2023/03/19 01:47:31;;;;;;;20.23;14.45;;;;;;;7.28;48.85;99449.53;4233907;33;34224;-86
2023/03/19 01:50:02;;;;;;;22.50;13.90;;;;;;;7.20;49.03;99456.16;4257418;33;33632;-88
2023/03/19 01:52:32;;;;;;;20.88;13.65;;;;;;;7.20;49.04;99457.84;4258224;33;33828;-87
2023/03/19 01:55:02;;;;;;;20.62;13.85;;;;;;;7.12;49.05;99462.75;4252844;33;33821;-87
2023/03/19 01:57:32;;;;;;;19.25;12.90;;;;;;;6.90;49.81;99465.50;4276378;33;33456;-88
2023/03/19 02:00:01;;;;;;;19.52;14.18;;;;;;;6.85;49.75;99464.44;4275654;33;33181;-90
2023/03/19 02:02:32;;;;;;;20.05;14.77;;;;;;;6.96;49.33;99457.94;4259374;33;34764;-89
2023/03/19 02:05:07;;;;;;;21.60;14.32;;;;;;;6.88;49.59;99457.69;4250641;33;34337;-88
2023/03/19 02:07:36;;;;;;;20.88;15.20;;;;;;;6.90;49.64;99460.34;4250349;33;33172;-88
2023/03/19 02:10:08;;;;;;;20.55;14.32;;;;;;;6.76;49.75;99453.03;4261380;33;33549;-88
2023/03/19 02:12:36;;;;;;;19.58;14.70;;;;;;;6.88;49.33;99451.69;4261572;33;33869;-86
2023/03/19 02:15:04;;;;;;;18.87;14.38;;;;;;;6.74;49.46;99441.81;4277814;33;35035;-90
2023/03/19 02:17:32;;;;;;;19.30;14.40;;;;;;;6.86;49.16;99448.16;4275739;33;34368;-88
2023/03/19 02:20:04;;;;;;;22.83;14.70;;;;;;;6.59;49.80;99443.88;4263526;33;33558;-87
2023/03/19 02:22:32;;;;;;;18.75;13.30;;;;;;;6.56;49.86;99448.94;4275682;33;33875;-83
2023/03/19 02:25:09;;;;;;;21.98;14.18;;;;;;;6.64;49.91;99454.34;4262561;33;34598;-86
2023/03/19 02:27:37;;;;;;;20.52;14.65;;;;;;;6.53;50.14;99454.84;4238321;33;32457;-88
2023/03/19 02:30:29;;;;;;;18.58;13.40;;;;;;;6.45;50.18;99438.28;4262079;33;33346;-83
2023/03/19 02:32:57;;;;;;;20.55;14.43;;;;;;;6.39;50.42;99439.75;4261398;33;33175;-84
2023/03/19 02:35:27;;;;;;;17.85;13.15;;;;;;;6.26;50.60;99436.78;4265136;33;34281;-91
2023/03/19 02:37:55;;;;;;;16.42;12.15;;;;;;;6.37;50.46;99441.44;4275102;33;34851;-88
2023/03/19 02:40:25;;;;;;;19.05;14.20;;;;;;;6.24;50.65;99430.69;4289121;33;33903;-88
2023/03/19 02:42:54;;;;;;;22.23;14.32;;;;;;;6.28;50.46;99429.09;4288990;33;34844;-84
2023/03/19 02:45:27;;;;;;;18.75;13.57;;;;;;;6.36;50.52;99429.34;4274900;33;34903;-87
2023/03/19 02:47:55;;;;;;;17.87;13.52;;;;;;;6.30;50.51;99428.34;4263543;33;33901;-88
2023/03/19 02:50:23;;;;;;;20.45;13.82;;;;;;;6.24;50.77;99429.81;4288112;33;33427;-87
2023/03/19 02:52:51;;;;;;;20.85;13.48;;;;;;;6.06;51.26;99432.62;4288535;33;33660;-88
2023/03/19 02:55:20;;;;;;;20.20;13.40;;;;;;;6.06;51.23;99425.81;4285438;33;33200;-84
2023/03/19 02:57:48;;;;;;;19.55;14.43;;;;;;;6.12;51.21;99432.84;4273925;33;33968;-89
2023/03/19 03:00:17;;;;;;;18.37;13.15;;;;;;;6.04;51.32;99431.72;4249298;33;32085;-84
2023/03/19 03:02:45;;;;;;;18.30;13.65;;;;;;;6.12;51.17;99432.84;4265587;33;34579;-85
2023/03/19 03:05:13;;;;;;;19.12;13.07;;;;;;;5.80;51.93;99434.25;4274898;33;33332;-88
2023/03/19 03:07:42;;;;;;;20.05;13.32;;;;;;;6.01;51.44;99432.47;4287879;33;33596;-85
2023/03/19 03:10:10;;;;;;;17.83;13.30;;;;;;;6.12;50.96;99426.81;4288423;33;33312;-86
2023/03/19 03:12:38;;;;;;;18.90;14.13;;;;;;;5.94;51.40;99434.78;4259589;33;33784;-86
2023/03/19 03:15:07;;;;;;;17.90;11.65;;;;;;;6.08;51.29;99431.88;4274048;33;34165;-85
2023/03/19 03:17:39;;;;;;;19.30;12.18;;;;;;;6.09;51.08;99441.31;4261136;33;33858;-85
2023/03/19 03:20:10;;;;;;;16.55;11.52;;;;;;;5.96;51.34;99438.28;4261111;33;34151;-89
2023/03/19 03:22:38;;;;;;;18.48;12.88;;;;;;;5.98;51.36;99434.06;4263730;33;33804;-88
2023/03/19 03:25:06;;;;;;;17.65;13.45;;;;;;;5.97;51.66;99434.88;4274960;33;33101;-87
2023/03/19 03:27:34;;;;;;;18.35;12.10;;;;;;;5.94;51.51;99424.47;4263313;33;34249;-85
2023/03/19 03:30:07;;;;;;;18.65;13.10;;;;;;;6.04;51.11;99431.72;4270276;33;32659;-88
2023/03/19 03:32:37;;;;;;;17.87;12.32;;;;;;;5.93;51.46;99438.19;4284239;33;34609;-88
2023/03/19 03:35:05;;;;;;;18.10;13.15;;;;;;;5.70;52.09;99442.47;4249400;33;33640;-87
2023/03/19 03:37:33;;;;;;;16.77;13.18;;;;;;;5.95;51.54;99441.69;4261085;33;33811;-88
2023/03/19 03:40:05;;;;;;;19.27;12.48;;;;;;;5.89;51.31;99441.44;4264860;33;34240;-89
2023/03/19 03:42:36;;;;;;;16.48;12.32;;;;;;;6.00;51.42;99433.31;4274911;33;32846;-86
2023/03/19 03:45:04;;;;;;;16.62;12.13;;;;;;;6.00;50.99;99432.44;4274702;33;32046;-85
2023/03/19 03:47:32;;;;;;;17.98;12.48;;;;;;;5.85;51.35;99436.16;4279046;33;33489;-86
2023/03/19 03:50:00;;;;;;;16.80;11.52;;;;;;;5.93;51.25;99427.88;4274041;33;33284;-84
2023/03/19 03:52:32;;;;;;;18.10;13.05;;;;;;;5.99;50.91;99434.12;4260924;33;33889;-85
2023/03/19 03:55:00;;;;;;;18.87;12.35;;;;;;;5.77;51.33;99437.59;4249632;33;33387;-85
2023/03/19 03:57:28;;;;;;;19.12;12.70;;;;;;;5.82;51.32;99443.78;4257596;33;32481;-88
2023/03/19 03:59:55;;;;;;;17.87;11.60;;;;;;;5.67;51.42;99438.06;4274681;33;33501;-89
2023/03/19 04:02:24;;;;;;;18.25;12.37;;;;;;;5.73;51.61;99443.44;4270985;33;34721;-85
2023/03/19 04:04:52;;;;;;;19.42;12.30;;;;;;;5.67;51.70;99445.78;4260424;33;33433;-86
2023/03/19 04:07:19;;;;;;;18.00;13.07;;;;;;;5.60;51.67;99448.94;4283969;33;33254;-88
2023/03/19 04:09:48;;;;;;;16.62;11.90;;;;;;;5.67;51.42;99445.78;4261057;33;34316;-89
2023/03/19 04:12:16;;;;;;;16.02;11.45;;;;;;;5.52;51.84;99447.78;4263986;33;33590;-88
2023/03/19 04:14:43;;;;;;;17.70;11.63;;;;;;;5.57;51.88;99443.72;4274376;33;33660;-88
2023/03/19 04:17:11;;;;;;;18.25;12.10;;;;;;;5.70;51.59;99435.63;4274586;33;33137;-89
2023/03/19 04:19:39;;;;;;;15.40;10.98;;;;;;;5.65;51.55;99426.88;4272283;33;32576;-88
2023/03/19 04:22:07;;;;;;;16.35;11.93;;;;;;;5.54;51.74;99420.47;4284297;33;33946;-86
2023/03/19 04:24:35;;;;;;;16.65;11.40;;;;;;;5.58;51.57;99417.19;4273645;33;33668;-89
2023/03/19 04:27:03;;;;;;;16.50;10.88;;;;;;;5.37;51.98;99419.81;4284157;33;33471;-88
2023/03/19 04:29:30;;;;;;;14.90;10.50;;;;;;;5.26;52.37;99409.13;4283792;33;33138;-87
2023/03/19 04:31:58;;;;;;;17.15;11.23;;;;;;;5.42;52.16;99417.41;4269890;33;33751;-86
2023/03/19 04:34:26;;;;;;;18.35;11.93;;;;;;;5.30;52.46;99418.72;4259473;33;33565;-89
2023/03/19 04:36:53;;;;;;;15.98;10.30;;;;;;;5.27;52.51;99426.31;4259311;33;33812;-89
2023/03/19 04:39:21;;;;;;;16.90;10.82;;;;;;;5.45;52.36;99408.13;4234786;33;32221;-87
2023/03/19 04:41:50;;;;;;;17.08;10.50;;;;;;;5.29;52.79;99426.38;4261512;33;33664;-85
2023/03/19 04:44:18;;;;;;;15.25;11.05;;;;;;;5.16;53.39;99434.44;4287817;33;34158;-89
2023/03/19 04:46:46;;;;;;;14.95;10.18;;;;;;;5.18;53.04;99433.66;4287841;33;33826;-86
2023/03/19 04:49:14;;;;;;;16.90;10.93;;;;;;;5.37;52.75;99441.25;4288208;33;32940;-85
2023/03/19 04:51:42;;;;;;;15.52;10.55;;;;;;;5.20;53.13;99437.19;4275536;33;33653;-87
2023/03/19 04:54:09;;;;;;;16.55;9.80;;;;;;;5.37;52.87;99433.53;4272524;33;32901;-87
2023/03/19 04:56:37;;;;;;;13.80;9.25;;;;;;;5.34;52.81;99446.31;4273642;33;33894;-85
2023/03/19 04:59:05;;;;;;;16.58;9.52;;;;;;;5.58;52.15;99440.31;4273261;33;33351;-89
2023/03/19 05:01:33;;;;;;;15.32;10.77;;;;;;;5.68;51.91;99438.94;4270277;33;33727;-86
2023/03/19 05:04:01;;;;;;;13.23;8.98;;;;;;;5.52;52.16;99434.94;4286935;33;33425;-89
2023/03/19 05:06:30;;;;;;;14.02;9.70;;;;;;;5.70;51.76;99438.19;4274605;33;34022;-89
2023/03/19 05:08:57;;;;;;;15.40;9.05;;;;;;;5.58;52.15;99440.31;4287697;33;33649;-84
2023/03/19 05:11:25;;;;;;;17.15;11.65;;;;;;;5.59;52.08;99445.50;4264740;33;34301;-88
2023/03/19 05:13:54;;;;;;;13.25;9.25;;;;;;;5.61;52.24;99448.16;4260105;33;33472;-88
2023/03/19 05:16:22;;;;;;;15.35;9.60;;;;;;;5.32;52.87;99447.94;4260600;33;33015;-88
2023/03/19 05:18:52;;;;;;;14.45;10.02;;;;;;;5.54;52.43;99448.75;4260154;33;32467;-85
2023/03/19 05:21:20;;;;;;;13.85;8.50;;;;;;;5.66;52.54;99449.19;4273080;33;33646;-89
2023/03/19 05:23:51;;;;;;;14.68;10.38;;;;;;;5.95;51.68;99444.28;4248751;33;34140;-89
2023/03/19 05:26:20;;;;;;;17.23;9.18;;;;;;;6.00;51.42;99440.16;4272970;33;34584;-85
2023/03/19 05:28:52;;;;;;;14.60;10.40;;;;;;;6.10;51.19;99437.09;4273399;33;33390;-89
2023/03/19 05:31:20;;;;;;;18.55;9.75;;;;;;;6.03;51.51;99450.56;4275070;33;34158;-85
2023/03/19 05:33:48;;;;;;;13.95;10.20;;;;;;;6.34;50.93;99457.63;4275068;33;33731;-89
2023/03/19 05:36:16;;;;;;;16.02;10.00;;;;;;;6.36;50.72;99457.69;4262059;33;32421;-85
2023/03/19 05:38:45;;;;;;;14.70;10.52;;;;;;;6.55;50.14;99457.47;4275411;33;32149;-89
2023/03/19 05:41:14;;;;;;;16.25;10.93;;;;;;;6.75;49.71;99455.56;4276167;33;33640;-87
2023/03/19 05:43:41;;;;;;;14.73;9.15;;;;;;;5.98;51.43;99447.78;4275832;33;33399;-85
2023/03/19 05:46:11;;;;;;;13.82;9.48;;;;;;;6.28;50.43;99445.41;4275543;33;32285;-88
2023/03/19 05:48:38;;;;;;;13.38;8.70;;;;;;;5.96;51.17;99438.28;4262408;33;31890;-87
2023/03/19 05:51:07;;;;;;;13.40;8.80;;;;;;;5.74;52.06;99442.63;4270659;33;32249;-86
2023/03/19 05:53:35;;;;;;;18.65;10.50;;;;;;;5.61;52.36;99445.59;4272377;33;34488;-85
2023/03/19 05:56:04;;;;;;;13.75;9.18;;;;;;;5.57;52.25;99448.88;4288628;33;34611;-86
2023/03/19 05:58:32;;;;;;;14.55;10.15;;;;;;;5.84;51.43;99449.00;4289132;33;34617;-86
2023/03/19 06:01:00;;;;;;;13.95;9.82;;;;;;;6.00;51.51;99453.00;4288619;33;33679;-85
2023/03/19 06:03:28;;;;;;;15.52;9.32;;;;;;;6.12;51.16;99455.13;4264075;33;33057;-85
2023/03/19 06:05:56;;;;;;;14.38;10.13;;;;;;;6.07;51.08;99460.13;4251936;33;33787;-85
2023/03/19 06:08:25;;;;;;;12.77;8.38;;;;;;;6.12;50.96;99455.13;4262000;33;33894;-88
2023/03/19 06:10:54;;;;;;;15.40;10.20;;;;;;;6.25;50.87;99454.72;4284670;33;33738;-89
2023/03/19 06:13:22;;;;;;;13.23;8.40;;;;;;;5.94;51.43;99460.50;4268209;33;33975;-89
2023/03/19 06:15:51;;;;;;;12.45;7.78;;;;;;;5.89;51.55;99467.16;4263379;33;34096;-85
2023/03/19 06:18:20;;;;;;;15.05;9.88;;;;;;;5.88;51.31;99466.28;4274396;33;33039;-89
2023/03/19 06:20:48;;;;;;;15.90;9.32;;;;;;;6.19;50.64;99473.44;4261602;33;33845;-88
2023/03/19 06:23:15;;;;;;;14.00;7.68;;;;;;;6.27;50.34;99482.28;4274251;33;35064;-89
2023/03/19 06:25:43;;;;;;;14.00;9.40;;;;;;;6.27;50.42;99486.56;4273343;33;33071;-89
2023/03/19 06:28:11;;;;;;;12.98;8.45;;;;;;;6.66;49.50;99491.31;4249344;33;31845;-86
2023/03/19 06:30:39;;;;;;;13.10;9.10;;;;;;;6.44;49.85;99484.56;4274552;33;33271;-88
2023/03/19 06:33:08;;;;;;;15.63;8.32;;;;;;;6.57;49.86;99490.19;4249594;33;34831;-88
2023/03/19 06:35:36;;;;;;;13.68;8.10;;;;;;;6.19;50.28;99496.59;4261392;33;34204;-80
2023/03/19 06:38:05;;;;;;;15.57;8.70;;;;;;;6.04;50.69;99496.94;4272808;33;34285;-85
2023/03/19 06:40:33;;;;;;;16.58;9.15;;;;;;;6.11;50.57;99498.03;4287966;33;34323;-85
2023/03/19 06:43:00;;;;;;;12.50;7.47;;;;;;;6.19;50.77;99498.31;4275080;33;33940;-89
2023/03/19 06:45:28;;;;;;;13.30;8.65;;;;;;;6.22;50.69;99491.56;4275328;33;33976;-90
2023/03/19 06:47:56;;;;;;;13.02;8.30;;;;;;;6.33;50.11;99500.53;4285660;33;34378;-90
2023/03/19 06:50:24;;;;;;;15.52;8.75;;;;;;;6.60;49.96;99497.16;4280045;33;34342;-90
2023/03/19 06:52:52;;;;;;;14.60;8.77;;;;;;;6.74;49.47;99489.87;4283858;33;32960;-86
2023/03/19 06:55:20;;;;;;;12.27;7.00;;;;;;;6.27;50.05;99492.59;4273827;33;34401;-90
2023/03/19 06:57:49;;;;;;;14.10;8.30;;;;;;;6.24;49.99;99483.88;4249713;33;33050;-91
2023/03/19 07:00:17;;;;;;;13.68;8.77;;;;;;;6.12;50.46;99493.75;4249766;33;33651;-86
2023/03/19 07:02:45;;;;;;;14.38;9.20;;;;;;;5.95;50.86;99493.16;4261761;33;33508;-90
2023/03/19 07:05:12;;;;;;;13.68;7.97;;;;;;;6.03;50.75;99482.31;4261432;33;34471;-90
2023/03/19 07:07:40;;;;;;;12.57;8.45;;;;;;;6.33;50.43;99486.78;4274327;33;33416;-88
2023/03/19 07:10:08;;;;;;;12.65;7.55;;;;;;;6.75;49.40;99482.22;4274620;33;34924;-84
2023/03/19 07:12:35;;;;;;;14.90;7.70;;;;;;;6.57;49.53;99482.47;4285203;33;33183;-85
2023/03/19 07:15:03;;;;;;;12.48;7.70;;;;;;;6.79;49.08;99489.22;4274462;33;33662;-92
2023/03/19 07:17:31;;;;;;;12.40;8.95;;;;;;;6.53;49.46;99484.88;4274280;33;33408;-90
2023/03/19 07:19:58;;;;;;;12.10;7.93;;;;;;;6.50;50.16;99488.22;4274182;33;33758;-84
2023/03/19 07:22:26;;;;;;;12.73;8.15;;;;;;;6.54;49.67;99492.66;4261089;33;34003;-88
2023/03/19 07:24:54;;;;;;;11.30;7.43;;;;;;;6.41;50.15;99489.63;4261071;33;33606;-87
2023/03/19 07:27:21;;;;;;;15.23;7.90;;;;;;;6.23;50.34;99485.59;4273919;33;33101;-85
2023/03/19 07:29:49;;;;;;;14.65;9.10;;;;;;;6.47;50.05;99498.41;4260805;33;34542;-85
2023/03/19 07:32:16;;;;;;;11.30;7.85;;;;;;;6.75;49.50;99492.50;4284627;33;33362;-91
2023/03/19 07:34:44;;;;;;;14.43;7.47;;;;;;;7.03;48.72;99493.41;4273718;33;34923;-89
2023/03/19 07:37:11;;;;;;;11.73;7.53;;;;;;;6.83;49.17;99491.06;4260628;33;33725;-87
2023/03/19 07:39:39;;;;;;;11.30;7.57;;;;;;;6.88;49.07;99498.06;4274080;33;34214;-88
2023/03/19 07:42:07;;;;;;;10.80;6.95;;;;;;;7.20;48.53;99494.81;4273817;33;34840;-84
2023/03/19 07:44:35;;;;;;;12.02;7.70;;;;;;;6.77;48.98;99485.69;4249104;33;32868;-90
2023/03/19 07:47:03;;;;;;;12.32;7.40;;;;;;;7.13;48.10;99497.16;4273833;33;33301;-88
2023/03/19 07:49:33;;;;;;;11.77;7.05;;;;;;;7.31;48.09;99485.72;4259504;33;34425;-89
2023/03/19 07:52:00;;;;;;;12.77;7.65;;;;;;;7.39;47.72;99483.37;4272846;33;33753;-91
2023/03/19 07:54:29;;;;;;;12.52;7.47;;;;;;;7.22;47.74;99485.41;4260842;33;33286;-84
2023/03/19 07:56:57;;;;;;;14.00;7.18;;;;;;;7.54;46.69;99477.81;4273470;33;33398;-91
2023/03/19 07:59:24;;;;;;;11.30;6.82;;;;;;;7.80;45.94;99484.59;4260628;33;33735;-92
2023/03/19 08:01:52;;;;;;;11.75;6.30;;;;;;;8.17;45.44;99475.28;4273995;33;34822;-91
2023/03/19 08:04:20;;;;;;;12.15;6.78;;;;;;;8.42;44.29;99473.41;4260481;33;34623;-83
2023/03/19 08:06:47;;;;;;;12.32;6.90;;;;;;;8.92;43.71;99472.06;4273978;33;33033;-87
2023/03/19 08:09:15;;;;;;;12.80;6.30;;;;;;;8.99;42.99;99473.97;4273587;33;34301;-82
2023/03/19 08:11:43;;;;;;;11.05;6.32;;;;;;;9.10;42.61;99475.97;4273873;33;34876;-90
2023/03/19 08:14:12;;;;;;;15.07;6.68;;;;;;;9.26;42.19;99470.28;4274280;33;33823;-93
2023/03/19 08:16:40;;;;;;;11.60;6.53;;;;;;;9.40;41.81;99462.84;4273761;33;33151;-86
2023/03/19 08:19:08;;;;;;;10.45;6.75;;;;;;;9.12;42.08;99469.97;4273888;33;33978;-88
2023/03/19 08:21:36;;;;;;;10.82;5.70;;;;;;;9.04;42.35;99473.22;4260625;33;34112;-85
2023/03/19 08:24:03;;;;;;;11.93;6.28;;;;;;;8.84;42.29;99467.56;4273461;33;34025;-86
2023/03/19 08:26:31;;;;;;;10.82;6.18;;;;;;;8.95;41.89;99471.28;4260755;33;33607;-90
2023/03/19 08:28:59;;;;;;;11.60;7.78;;;;;;;9.22;41.47;99466.75;4259690;33;33532;-88
2023/03/19 08:31:27;;;;;;;10.60;6.10;;;;;;;9.67;41.42;99468.63;4260692;33;33761;-91
2023/03/19 08:33:55;;;;;;;10.18;5.97;;;;;;;9.81;41.34;99462.84;4273794;33;33595;-84
2023/03/19 08:36:22;;;;;;;13.43;5.45;;;;;;;9.38;41.50;99477.44;4248790;33;33135;-88
2023/03/19 08:38:53;;;;;;;9.32;6.15;;;;;;;9.66;40.72;99472.06;4273289;33;33618;-86
2023/03/19 08:41:21;;;;;;;9.45;5.78;;;;;;;9.82;40.66;99467.19;4260826;33;34035;-90
2023/03/19 08:43:49;;;;;;;9.90;6.07;;;;;;;9.73;40.40;99473.91;4259353;33;33703;-93
2023/03/19 08:46:17;;;;;;;10.70;5.50;;;;;;;9.86;40.68;99463.81;4252634;33;34169;-90
2023/03/19 08:48:45;;;;;;;11.75;5.90;;;;;;;9.78;40.12;99462.78;4246386;33;34654;-86
2023/03/19 08:51:12;;;;;;;10.25;5.78;;;;;;;9.58;40.28;99463.22;4246703;33;33868;-87
2023/03/19 08:53:40;;;;;;;10.75;5.28;;;;;;;9.95;40.34;99466.56;4246407;33;34187;-92
2023/03/19 08:56:08;;;;;;;15.52;5.78;;;;;;;9.96;39.85;99457.97;4246598;33;32778;-89
2023/03/19 08:58:35;;;;;;;12.65;5.40;;;;;;;10.14;40.11;99458.31;4281623;33;33549;-87
2023/03/19 09:01:09;;;;;;;9.88;5.30;;;;;;;9.90;40.46;99452.69;4271611;33;34354;-88
2023/03/19 09:03:37;;;;;;;12.10;6.35;;;;;;;10.71;39.09;99447.28;4274671;33;33982;-88
2023/03/19 09:06:06;;;;;;;9.77;5.03;;;;;;;10.92;38.45;99451.09;4287330;33;33248;-85
2023/03/19 09:08:35;;;;;;;10.25;5.78;;;;;;;10.58;39.19;99455.72;4274393;33;34032;-86
2023/03/19 09:11:03;;;;;;;9.27;5.30;;;;;;;10.99;38.13;99445.16;4267090;33;33251;-85
2023/03/19 09:13:31;;;;;;;10.07;4.68;;;;;;;11.00;37.98;99457.25;4272682;33;34915;-86
2023/03/19 09:15:59;;;;;;;10.95;5.37;;;;;;;10.62;38.39;99441.94;4273012;33;33793;-86
2023/03/19 09:18:27;;;;;;;10.45;5.30;;;;;;;10.59;38.70;99456.56;4272657;33;35040;-88
2023/03/19 09:20:54;;;;;;;9.75;4.97;;;;;;;10.88;38.02;99454.47;4278177;33;34004;-88
2023/03/19 09:23:22;;;;;;;8.80;5.00;;;;;;;10.67;38.81;99450.66;4287847;33;34824;-93
2023/03/19 09:25:50;;;;;;;8.73;4.95;;;;;;;10.60;38.55;99440.16;4287792;33;33750;-90
2023/03/19 09:28:18;;;;;;;10.48;5.70;;;;;;;10.68;38.32;99439.47;4279933;33;33995;-92
2023/03/19 09:30:47;;;;;;;8.77;5.22;;;;;;;10.83;37.81;99431.03;4260931;33;33755;-89
2023/03/19 09:33:16;;;;;;;12.80;5.43;;;;;;;10.83;37.88;99437.94;4260685;33;34648;-90
2023/03/19 09:35:48;;;;;;;8.15;4.55;;;;;;;11.18;37.15;99434.19;4260184;33;33783;-91
2023/03/19 09:38:16;;;;;;;11.25;5.50;;;;;;;11.10;37.52;99443.59;4273154;33;33867;-91
2023/03/19 09:40:53;;;;;;;12.40;5.18;;;;;;;11.58;36.65;99426.94;4260149;33;33824;-89
2023/03/19 09:43:51;;;;;;;9.68;5.43;;;;;;;11.28;37.08;99423.94;4259897;33;33459;-89
2023/03/19 09:46:23;;;;;;;10.45;5.22;;;;;;;11.36;36.69;99419.72;4280417;33;32089;-87
2023/03/19 09:49:05;;;;;;;9.63;4.28;;;;;;;11.43;36.61;99421.53;4268247;33;33529;-82
2023/03/19 09:51:42;;;;;;;9.48;5.20;;;;;;;11.56;36.10;99426.06;4271603;33;34645;-90
2023/03/19 09:54:26;;;;;;;9.93;5.25;;;;;;;11.47;37.01;99422.44;4271954;33;33988;-89
2023/03/19 09:56:54;;;;;;;9.25;5.32;;;;;;;11.66;36.00;99417.50;4259810;33;32815;-90
2023/03/19 09:59:24;;;;;;;11.75;6.15;;;;;;;11.89;35.68;99420.44;4257981;33;33713;-89
2023/03/19 10:02:24;;;;;;;14.10;6.47;;;;;;;11.85;36.31;99430.75;4257866;33;34202;-90
2023/03/19 10:05:37;;;;;;;9.45;5.68;;;;;;;11.74;36.16;99427.13;4253795;33;34083;-90
2023/03/19 10:08:27;;;;;;;10.23;5.57;;;;;;;11.97;35.96;99425.72;4246993;33;32244;-89
2023/03/19 10:10:55;;;;;;;13.30;5.22;;;;;;;12.09;35.74;99423.25;4273841;33;33993;-91
2023/03/19 10:13:58;;;;;;;11.10;6.05;;;;;;;12.30;35.19;99419.13;4272112;33;34212;-86
2023/03/19 10:16:27;;;;;;;10.88;5.37;;;;;;;12.46;35.14;99423.59;4260043;33;34552;-89
2023/03/19 10:19:01;;;;;;;10.90;5.72;;;;;;;12.48;34.87;99421.91;4267204;33;33356;-88
2023/03/19 10:21:52;;;;;;;10.82;5.40;;;;;;;12.77;34.22;99419.56;4273840;33;33945;-90
2023/03/19 10:24:33;;;;;;;11.20;5.15;;;;;;;13.23;33.64;99411.19;4259797;33;34251;-89
2023/03/19 10:27:09;;;;;;;11.88;5.05;;;;;;;13.15;33.75;99404.19;4261844;33;33905;-89
2023/03/19 10:29:38;;;;;;;8.88;5.07;;;;;;;12.95;34.02;99411.00;4250896;33;33494;-88
2023/03/19 10:32:19;;;;;;;9.65;5.68;;;;;;;12.94;33.75;99405.78;4261467;33;34191;-88
2023/03/19 10:34:49;;;;;;;9.57;5.30;;;;;;;12.80;34.30;99410.88;4267325;33;34779;-91
2023/03/19 10:37:22;;;;;;;9.38;5.20;;;;;;;12.69;33.75;99399.50;4258620;33;33606;-95
2023/03/19 10:39:52;;;;;;;9.60;5.57;;;;;;;12.98;33.90;99386.72;4270459;33;33529;-92
2023/03/19 10:42:38;;;;;;;9.13;5.55;;;;;;;13.30;33.79;99384.37;4249694;33;33367;-92
2023/03/19 10:45:26;;;;;;;9.45;5.20;;;;;;;13.31;33.34;99386.09;4272482;33;33564;-91
2023/03/19 10:47:58;;;;;;;9.57;5.25;;;;;;;13.37;32.60;99378.28;4264547;33;33994;-89
2023/03/19 10:50:36;;;;;;;9.40;4.80;;;;;;;13.07;33.31;99377.25;4262554;33;33401;-89
2023/03/19 10:53:16;;;;;;;8.80;5.05;;;;;;;13.09;33.22;99380.72;4260811;33;32555;-89
2023/03/19 10:55:47;;;;;;;9.35;4.90;;;;;;;13.35;33.72;99367.03;4273058;33;34157;-89
2023/03/19 10:58:17;;;;;;;10.05;4.90;;;;;;;13.52;32.63;99372.28;4260181;33;34229;-88
2023/03/19 11:00:46;;;;;;;10.13;5.60;;;;;;;13.61;32.29;99375.81;4271832;33;33087;-90
2023/03/19 11:03:36;;;;;;;9.48;4.78;;;;;;;13.86;32.09;99361.16;4260833;33;34787;-90
2023/03/19 11:06:16;;;;;;;9.07;4.50;;;;;;;13.54;31.93;99352.34;4273205;33;33763;-89
2023/03/19 11:08:55;;;;;;;8.68;4.30;;;;;;;13.76;31.72;99353.28;4261202;33;33936;-91
2023/03/19 11:11:33;;;;;;;9.40;5.22;;;;;;;13.54;32.12;99349.75;4260897;33;33438;-87
2023/03/19 11:14:28;;;;;;;10.43;4.95;;;;;;;13.93;31.48;99351.56;4261314;33;34176;-88
2023/03/19 11:16:58;;;;;;;10.98;5.00;;;;;;;13.82;31.78;99338.50;4276138;33;34309;-90
2023/03/19 11:19:30;;;;;;;10.45;4.47;;;;;;;13.93;31.76;99338.53;4260979;33;34698;-87
2023/03/19 11:22:21;;;;;;;8.40;4.30;;;;;;;13.91;31.87;99329.00;4281487;33;33341;-90
2023/03/19 11:24:52;;;;;;;11.07;4.95;;;;;;;14.08;31.67;99337.72;4283542;33;32831;-87
2023/03/19 11:27:34;;;;;;;11.15;5.12;;;;;;;14.49;31.58;99324.72;4286656;33;34950;-87
2023/03/19 11:30:11;;;;;;;10.02;4.72;;;;;;;15.03;30.76;99317.66;4256823;33;34355;-86
2023/03/19 11:32:56;;;;;;;8.55;4.70;;;;;;;14.40;30.84;99311.66;4262265;33;33387;-88
2023/03/19 11:35:50;;;;;;;9.52;4.80;;;;;;;14.92;30.50;99311.59;4261642;33;34100;-85
2023/03/19 11:38:33;;;;;;;9.73;4.80;;;;;;;15.26;30.14;99321.94;4259863;33;34043;-86
2023/03/19 11:41:22;;;;;;;11.07;5.00;;;;;;;14.95;30.11;99314.19;4276573;33;34866;-85
2023/03/19 11:43:58;;;;;;;10.55;5.18;;;;;;;14.67;31.11;99320.38;4266166;33;32684;-83